sensor_id;sensor_type;location;lat;lon;timestamp;pressure;altitude;pressure_sealevel;temperature;humidity
69848;BME280;57143;55.940;37.496;2023-04-02T00:02:32;96148.66;;;6.81;100.00
69848;BME280;57143;55.940;37.496;2023-04-02T00:05:39;96067.84;;;6.86;100.00
69848;BME280;57143;55.940;37.496;2023-04-02T00:08:26;95986.63;;;6.79;100.00
69848;BME280;57143;55.940;37.496;2023-04-02T00:10:55;95919.06;;;6.80;100.00
69848;BME280;57143;55.940;37.496;2023-04-02T00:13:34;95839.78;;;6.73;100.00
69848;BME280;57143;55.940;37.496;2023-04-02T00:16:05;95729.69;;;6.76;100.00
69848;BME280;57143;55.940;37.496;2023-04-02T00:18:38;95618.72;;;6.66;100.00
69848;BME280;57143;55.940;37.496;2023-04-02T00:21:11;95557.75;;;6.75;100.00
69848;BME280;57143;55.940;37.496;2023-04-02T00:23:41;95500.06;;;6.67;100.00
69848;BME280;57143;55.940;37.496;2023-04-02T00:26:26;95431.91;;;6.72;100.00
69848;BME280;57143;55.940;37.496;2023-04-02T00:28:55;95400.41;;;6.86;100.00
69848;BME280;57143;55.940;37.496;2023-04-02T00:31:23;95365.13;;;6.87;100.00
69848;BME280;57143;55.940;37.496;2023-04-02T00:33:52;95341.09;;;6.91;100.00
69848;BME280;57143;55.940;37.496;2023-04-02T00:36:21;95312.72;;;6.85;100.00
69848;BME280;57143;55.940;37.496;2023-04-02T00:38:52;95278.25;;;6.73;100.00
69848;BME280;57143;55.940;37.496;2023-04-02T00:41:24;95251.50;;;6.90;100.00
69848;BME280;57143;55.940;37.496;2023-04-02T00:43:55;95235.84;;;6.92;100.00
69848;BME280;57143;55.940;37.496;2023-04-02T00:46:28;95218.00;;;6.96;100.00
69848;BME280;57143;55.940;37.496;2023-04-02T00:49:00;95216.69;;;6.94;100.00
69848;BME280;57143;55.940;37.496;2023-04-02T00:51:30;95199.47;;;6.95;100.00
69848;BME280;57143;55.940;37.496;2023-04-02T00:54:01;95199.59;;;6.90;100.00
69848;BME280;57143;55.940;37.496;2023-04-02T00:56:32;95207.72;;;6.98;100.00
69848;BME280;57143;55.940;37.496;2023-04-02T00:59:03;95195.47;;;6.92;100.00
69848;BME280;57143;55.940;37.496;2023-04-02T01:01:35;95182.28;;;7.04;100.00
69848;BME280;57143;55.940;37.496;2023-04-02T01:04:28;95201.44;;;7.03;100.00
69848;BME280;57143;55.940;37.496;2023-04-02T01:07:03;95196.47;;;6.96;100.00
69848;BME280;57143;55.940;37.496;2023-04-02T01:09:42;95207.13;;;7.01;100.00
69848;BME280;57143;55.940;37.496;2023-04-02T01:12:37;95211.28;;;7.07;100.00
69848;BME280;57143;55.940;37.496;2023-04-02T01:15:11;95216.66;;;7.07;100.00
69848;BME280;57143;55.940;37.496;2023-04-02T01:18:01;95242.00;;;7.07;100.00
69848;BME280;57143;55.940;37.496;2023-04-02T01:20:58;95230.41;;;7.06;100.00
69848;BME280;57143;55.940;37.496;2023-04-02T01:23:32;95237.41;;;7.07;100.00
69848;BME280;57143;55.940;37.496;2023-04-02T01:26:09;95219.19;;;6.90;100.00
69848;BME280;57143;55.940;37.496;2023-04-02T01:29:01;95237.91;;;7.09;100.00
69848;BME280;57143;55.940;37.496;2023-04-02T01:31:30;95254.66;;;7.06;100.00
69848;BME280;57143;55.940;37.496;2023-04-02T01:33:59;95274.69;;;7.14;100.00
69848;BME280;57143;55.940;37.496;2023-04-02T01:36:32;95271.19;;;7.13;100.00
69848;BME280;57143;55.940;37.496;2023-04-02T01:39:09;95281.25;;;7.07;100.00
69848;BME280;57143;55.940;37.496;2023-04-02T01:41:44;95273.28;;;7.02;100.00
69848;BME280;57143;55.940;37.496;2023-04-02T01:44:19;95258.06;;;6.98;100.00
69848;BME280;57143;55.940;37.496;2023-04-02T01:46:48;95267.03;;;7.07;100.00
69848;BME280;57143;55.940;37.496;2023-04-02T01:49:18;95251.38;;;7.09;100.00
69848;BME280;57143;55.940;37.496;2023-04-02T01:51:50;95242.59;;;7.03;100.00
69848;BME280;57143;55.940;37.496;2023-04-02T01:54:18;95232.91;;;7.02;100.00
69848;BME280;57143;55.940;37.496;2023-04-02T01:56:46;95237.59;;;7.11;100.00
69848;BME280;57143;55.940;37.496;2023-04-02T01:59:17;95235.41;;;7.13;100.00
69848;BME280;57143;55.940;37.496;2023-04-02T02:01:47;95238.88;;;7.13;100.00
69848;BME280;57143;55.940;37.496;2023-04-02T02:04:18;95242.06;;;7.15;100.00
69848;BME280;57143;55.940;37.496;2023-04-02T02:06:46;95239.50;;;7.10;100.00
69848;BME280;57143;55.940;37.496;2023-04-02T02:09:17;95243.75;;;7.11;100.00
69848;BME280;57143;55.940;37.496;2023-04-02T02:11:47;95261.72;;;7.16;100.00
69848;BME280;57143;55.940;37.496;2023-04-02T02:14:18;95257.13;;;7.16;100.00
69848;BME280;57143;55.940;37.496;2023-04-02T02:17:09;95252.72;;;7.20;100.00
69848;BME280;57143;55.940;37.496;2023-04-02T02:19:42;95273.38;;;7.25;100.00
69848;BME280;57143;55.940;37.496;2023-04-02T02:22:16;95290.78;;;7.27;100.00
69848;BME280;57143;55.940;37.496;2023-04-02T02:24:45;95306.25;;;7.22;100.00
69848;BME280;57143;55.940;37.496;2023-04-02T02:30:20;95326.22;;;7.21;100.00
69848;BME280;57143;55.940;37.496;2023-04-02T02:32:56;95321.75;;;7.16;100.00
69848;BME280;57143;55.940;37.496;2023-04-02T02:35:29;95346.72;;;7.30;100.00
69848;BME280;57143;55.940;37.496;2023-04-02T02:38:06;95366.88;;;7.33;100.00
69848;BME280;57143;55.940;37.496;2023-04-02T02:40:39;95383.16;;;7.28;100.00
69848;BME280;57143;55.940;37.496;2023-04-02T02:43:12;95381.06;;;7.25;100.00
69848;BME280;57143;55.940;37.496;2023-04-02T02:45:43;95400.38;;;7.27;100.00
69848;BME280;57143;55.940;37.496;2023-04-02T02:48:14;95414.13;;;7.39;100.00
69848;BME280;57143;55.940;37.496;2023-04-02T02:50:44;95435.91;;;7.29;100.00
69848;BME280;57143;55.940;37.496;2023-04-02T02:53:16;95454.66;;;7.34;100.00
69848;BME280;57143;55.940;37.496;2023-04-02T02:55:46;95481.56;;;7.34;100.00
69848;BME280;57143;55.940;37.496;2023-04-02T02:58:17;95472.13;;;7.23;100.00
69848;BME280;57143;55.940;37.496;2023-04-02T03:00:49;95495.03;;;7.34;100.00
69848;BME280;57143;55.940;37.496;2023-04-02T03:03:18;95507.53;;;7.43;100.00
69848;BME280;57143;55.940;37.496;2023-04-02T03:05:50;95515.50;;;7.48;100.00
69848;BME280;57143;55.940;37.496;2023-04-02T03:08:22;95549.81;;;7.43;100.00
69848;BME280;57143;55.940;37.496;2023-04-02T03:10:55;95583.47;;;7.45;100.00
69848;BME280;57143;55.940;37.496;2023-04-02T03:13:28;95604.81;;;7.42;100.00
69848;BME280;57143;55.940;37.496;2023-04-02T03:16:03;95636.13;;;7.51;100.00
69848;BME280;57143;55.940;37.496;2023-04-02T03:18:41;95637.53;;;7.49;100.00
69848;BME280;57143;55.940;37.496;2023-04-02T03:21:15;95665.84;;;7.46;100.00
69848;BME280;57143;55.940;37.496;2023-04-02T03:23:49;95683.13;;;7.45;100.00
69848;BME280;57143;55.940;37.496;2023-04-02T03:26:18;95706.88;;;7.43;100.00
69848;BME280;57143;55.940;37.496;2023-04-02T03:28:51;95728.72;;;7.42;100.00
69848;BME280;57143;55.940;37.496;2023-04-02T03:31:26;95749.88;;;7.48;100.00
69848;BME280;57143;55.940;37.496;2023-04-02T03:33:58;95770.53;;;7.53;100.00
69848;BME280;57143;55.940;37.496;2023-04-02T03:36:29;95763.09;;;7.31;100.00
69848;BME280;57143;55.940;37.496;2023-04-02T03:39:03;95820.72;;;7.49;100.00
69848;BME280;57143;55.940;37.496;2023-04-02T03:41:40;95833.41;;;7.48;100.00
69848;BME280;57143;55.940;37.496;2023-04-02T03:44:18;95854.06;;;7.53;100.00
69848;BME280;57143;55.940;37.496;2023-04-02T03:46:52;95886.91;;;7.55;100.00
69848;BME280;57143;55.940;37.496;2023-04-02T03:49:29;95902.25;;;7.54;100.00
69848;BME280;57143;55.940;37.496;2023-04-02T03:52:03;95872.47;;;7.27;100.00
69848;BME280;57143;55.940;37.496;2023-04-02T03:54:31;95936.72;;;7.57;100.00
69848;BME280;57143;55.940;37.496;2023-04-02T03:56:59;95960.69;;;7.59;100.00
69848;BME280;57143;55.940;37.496;2023-04-02T03:59:36;95988.94;;;7.61;100.00
69848;BME280;57143;55.940;37.496;2023-04-02T04:02:18;96002.94;;;7.63;100.00
69848;BME280;57143;55.940;37.496;2023-04-02T04:04:51;96009.13;;;7.64;100.00
69848;BME280;57143;55.940;37.496;2023-04-02T04:07:28;96017.91;;;7.51;100.00
69848;BME280;57143;55.940;37.496;2023-04-02T04:09:58;96052.78;;;7.66;100.00
69848;BME280;57143;55.940;37.496;2023-04-02T04:12:30;96085.03;;;7.71;100.00
69848;BME280;57143;55.940;37.496;2023-04-02T04:15:01;96075.16;;;7.61;100.00
69848;BME280;57143;55.940;37.496;2023-04-02T04:17:35;96109.59;;;7.69;100.00
69848;BME280;57143;55.940;37.496;2023-04-02T04:20:15;96140.03;;;7.70;100.00
69848;BME280;57143;55.940;37.496;2023-04-02T04:22:47;96144.91;;;7.68;100.00
69848;BME280;57143;55.940;37.496;2023-04-02T04:25:20;96161.69;;;7.60;100.00
69848;BME280;57143;55.940;37.496;2023-04-02T04:27:57;96138.22;;;7.37;100.00
69848;BME280;57143;55.940;37.496;2023-04-02T04:30:38;96189.75;;;7.59;100.00
69848;BME280;57143;55.940;37.496;2023-04-02T04:33:15;96210.69;;;7.67;100.00
69848;BME280;57143;55.940;37.496;2023-04-02T04:35:49;96233.00;;;7.72;100.00
69848;BME280;57143;55.940;37.496;2023-04-02T04:38:19;96232.75;;;7.69;100.00
69848;BME280;57143;55.940;37.496;2023-04-02T04:40:55;96255.91;;;7.70;100.00
69848;BME280;57143;55.940;37.496;2023-04-02T04:43:32;96279.59;;;7.78;100.00
69848;BME280;57143;55.940;37.496;2023-04-02T04:46:07;96284.97;;;7.78;100.00
69848;BME280;57143;55.940;37.496;2023-04-02T04:48:44;96299.81;;;7.75;100.00
69848;BME280;57143;55.940;37.496;2023-04-02T04:51:19;96320.25;;;7.81;100.00
69848;BME280;57143;55.940;37.496;2023-04-02T04:53:49;96321.06;;;7.82;100.00
69848;BME280;57143;55.940;37.496;2023-04-02T04:56:22;96343.09;;;7.89;100.00
69848;BME280;57143;55.940;37.496;2023-04-02T04:58:54;96349.31;;;7.89;100.00
69848;BME280;57143;55.940;37.496;2023-04-02T05:01:28;96381.03;;;7.97;100.00
69848;BME280;57143;55.940;37.496;2023-04-02T05:04:04;96406.75;;;7.90;100.00
69848;BME280;57143;55.940;37.496;2023-04-02T05:06:38;96435.06;;;7.87;100.00
69848;BME280;57143;55.940;37.496;2023-04-02T05:09:13;96460.44;;;7.81;100.00
69848;BME280;57143;55.940;37.496;2023-04-02T05:11:44;96480.06;;;7.87;100.00
69848;BME280;57143;55.940;37.496;2023-04-02T05:14:19;96502.75;;;7.86;100.00
69848;BME280;57143;55.940;37.496;2023-04-02T05:16:53;96517.00;;;7.91;100.00
69848;BME280;57143;55.940;37.496;2023-04-02T05:19:27;96544.53;;;7.88;100.00
69848;BME280;57143;55.940;37.496;2023-04-02T05:21:59;96559.06;;;7.92;100.00
69848;BME280;57143;55.940;37.496;2023-04-02T05:24:45;96586.03;;;7.92;100.00
69848;BME280;57143;55.940;37.496;2023-04-02T05:27:27;96586.31;;;7.86;100.00
69848;BME280;57143;55.940;37.496;2023-04-02T05:30:01;96613.22;;;8.01;100.00
69848;BME280;57143;55.940;37.496;2023-04-02T05:32:33;96631.03;;;8.02;100.00
69848;BME280;57143;55.940;37.496;2023-04-02T05:35:03;96659.63;;;7.98;100.00
69848;BME280;57143;55.940;37.496;2023-04-02T05:37:31;96664.50;;;7.91;100.00
69848;BME280;57143;55.940;37.496;2023-04-02T05:40:04;96701.44;;;8.00;100.00
69848;BME280;57143;55.940;37.496;2023-04-02T05:42:39;96709.53;;;7.90;100.00
69848;BME280;57143;55.940;37.496;2023-04-02T05:45:18;96733.53;;;7.97;100.00
69848;BME280;57143;55.940;37.496;2023-04-02T05:47:47;96747.03;;;7.92;100.00
69848;BME280;57143;55.940;37.496;2023-04-02T05:50:22;96753.72;;;7.99;100.00
69848;BME280;57143;55.940;37.496;2023-04-02T05:52:54;96766.41;;;8.04;100.00
69848;BME280;57143;55.940;37.496;2023-04-02T05:55:29;96780.44;;;8.01;100.00
69848;BME280;57143;55.940;37.496;2023-04-02T05:58:01;96784.53;;;7.83;100.00
69848;BME280;57143;55.940;37.496;2023-04-02T06:00:48;96810.09;;;7.96;100.00
69848;BME280;57143;55.940;37.496;2023-04-02T06:03:23;96812.00;;;8.10;100.00
69848;BME280;57143;55.940;37.496;2023-04-02T06:05:58;96822.78;;;8.15;100.00
69848;BME280;57143;55.940;37.496;2023-04-02T06:08:31;96833.84;;;8.04;100.00
69848;BME280;57143;55.940;37.496;2023-04-02T06:11:06;96857.56;;;8.12;100.00
69848;BME280;57143;55.940;37.496;2023-04-02T06:13:35;96865.13;;;8.15;100.00
69848;BME280;57143;55.940;37.496;2023-04-02T06:16:03;96876.19;;;8.13;100.00
69848;BME280;57143;55.940;37.496;2023-04-02T06:18:32;96897.22;;;8.21;100.00
69848;BME280;57143;55.940;37.496;2023-04-02T06:21:02;96907.22;;;8.21;100.00
69848;BME280;57143;55.940;37.496;2023-04-02T06:23:32;96919.38;;;8.29;100.00
69848;BME280;57143;55.940;37.496;2023-04-02T06:26:05;96931.25;;;8.33;100.00
69848;BME280;57143;55.940;37.496;2023-04-02T06:28:39;96912.09;;;8.29;100.00
69848;BME280;57143;55.940;37.496;2023-04-02T06:31:11;96964.16;;;8.45;100.00
69848;BME280;57143;55.940;37.496;2023-04-02T06:33:42;96960.94;;;8.33;100.00
69848;BME280;57143;55.940;37.496;2023-04-02T06:36:11;96991.69;;;8.42;100.00
69848;BME280;57143;55.940;37.496;2023-04-02T06:38:38;96999.81;;;8.42;100.00
69848;BME280;57143;55.940;37.496;2023-04-02T06:41:13;97019.47;;;8.42;100.00
69848;BME280;57143;55.940;37.496;2023-04-02T06:43:44;97023.28;;;8.41;100.00
69848;BME280;57143;55.940;37.496;2023-04-02T06:46:17;97023.25;;;8.36;100.00
69848;BME280;57143;55.940;37.496;2023-04-02T06:48:47;97044.03;;;8.41;100.00
69848;BME280;57143;55.940;37.496;2023-04-02T06:51:19;97060.22;;;8.31;100.00
69848;BME280;57143;55.940;37.496;2023-04-02T06:53:49;97075.09;;;8.38;100.00
69848;BME280;57143;55.940;37.496;2023-04-02T06:56:24;97044.00;;;8.20;100.00
69848;BME280;57143;55.940;37.496;2023-04-02T06:58:56;97073.72;;;8.31;100.00
69848;BME280;57143;55.940;37.496;2023-04-02T07:01:26;97088.56;;;8.33;100.00
69848;BME280;57143;55.940;37.496;2023-04-02T07:03:55;97083.47;;;8.37;100.00
69848;BME280;57143;55.940;37.496;2023-04-02T07:06:24;97090.75;;;8.56;100.00
69848;BME280;57143;55.940;37.496;2023-04-02T07:08:51;97105.88;;;8.52;100.00
69848;BME280;57143;55.940;37.496;2023-04-02T07:11:20;97109.66;;;8.46;100.00
69848;BME280;57143;55.940;37.496;2023-04-02T07:13:49;97113.44;;;8.40;100.00
69848;BME280;57143;55.940;37.496;2023-04-02T07:16:18;97135.31;;;8.59;100.00
69848;BME280;57143;55.940;37.496;2023-04-02T07:18:47;97138.03;;;8.69;100.00
69848;BME280;57143;55.940;37.496;2023-04-02T07:21:14;97133.97;;;8.61;100.00
69848;BME280;57143;55.940;37.496;2023-04-02T07:23:42;97149.91;;;8.63;100.00
69848;BME280;57143;55.940;37.496;2023-04-02T07:26:13;97162.88;;;8.61;100.00
69848;BME280;57143;55.940;37.496;2023-04-02T07:28:41;97181.50;;;8.57;100.00
69848;BME280;57143;55.940;37.496;2023-04-02T07:31:14;97169.56;;;8.48;100.00
69848;BME280;57143;55.940;37.496;2023-04-02T07:33:43;97210.63;;;8.55;100.00
69848;BME280;57143;55.940;37.496;2023-04-02T07:36:13;97226.53;;;8.52;100.00
69848;BME280;57143;55.940;37.496;2023-04-02T07:38:43;97242.72;;;8.47;100.00
69848;BME280;57143;55.940;37.496;2023-04-02T07:41:11;97238.19;;;8.57;100.00
69848;BME280;57143;55.940;37.496;2023-04-02T07:43:39;97248.94;;;8.47;100.00
69848;BME280;57143;55.940;37.496;2023-04-02T07:46:07;97268.38;;;8.54;100.00
69848;BME280;57143;55.940;37.496;2023-04-02T07:48:35;97279.66;;;8.36;100.00
69848;BME280;57143;55.940;37.496;2023-04-02T07:51:02;97282.91;;;8.38;100.00
69848;BME280;57143;55.940;37.496;2023-04-02T07:53:31;97295.25;;;8.29;100.00
69848;BME280;57143;55.940;37.496;2023-04-02T07:56:02;97302.28;;;8.30;100.00
69848;BME280;57143;55.940;37.496;2023-04-02T07:58:30;97311.97;;;8.26;100.00
69848;BME280;57143;55.940;37.496;2023-04-02T08:00:58;97312.78;;;8.27;100.00
69848;BME280;57143;55.940;37.496;2023-04-02T08:03:25;97307.16;;;8.33;100.00
69848;BME280;57143;55.940;37.496;2023-04-02T08:05:55;97300.41;;;8.31;100.00
69848;BME280;57143;55.940;37.496;2023-04-02T08:08:23;97291.78;;;8.34;100.00
69848;BME280;57143;55.940;37.496;2023-04-02T08:10:50;97310.59;;;8.24;100.00
69848;BME280;57143;55.940;37.496;2023-04-02T08:13:19;97305.50;;;8.27;100.00
69848;BME280;57143;55.940;37.496;2023-04-02T08:15:46;97313.88;;;8.26;100.00
69848;BME280;57143;55.940;37.496;2023-04-02T08:18:13;97300.19;;;8.42;100.00
69848;BME280;57143;55.940;37.496;2023-04-02T08:20:40;97302.66;;;8.49;100.00
69848;BME280;57143;55.940;37.496;2023-04-02T08:23:12;97296.53;;;8.68;100.00
69848;BME280;57143;55.940;37.496;2023-04-02T08:25:41;97295.50;;;8.79;100.00
69848;BME280;57143;55.940;37.496;2023-04-02T08:28:09;97303.06;;;8.82;100.00
69848;BME280;57143;55.940;37.496;2023-04-02T08:30:37;97310.88;;;8.79;100.00
69848;BME280;57143;55.940;37.496;2023-04-02T08:33:04;97331.97;;;8.82;100.00
69848;BME280;57143;55.940;37.496;2023-04-02T08:35:32;97330.63;;;8.84;100.00
69848;BME280;57143;55.940;37.496;2023-04-02T08:37:59;97336.06;;;8.89;100.00
69848;BME280;57143;55.940;37.496;2023-04-02T08:40:30;97330.81;;;8.63;100.00
69848;BME280;57143;55.940;37.496;2023-04-02T08:43:22;97342.00;;;8.86;100.00
69848;BME280;57143;55.940;37.496;2023-04-02T08:46:02;97346.59;;;8.91;100.00
69848;BME280;57143;55.940;37.496;2023-04-02T08:48:32;97356.84;;;8.94;100.00
69848;BME280;57143;55.940;37.496;2023-04-02T08:51:01;97367.22;;;9.12;100.00
69848;BME280;57143;55.940;37.496;2023-04-02T08:53:31;97383.16;;;9.18;100.00
69848;BME280;57143;55.940;37.496;2023-04-02T08:56:03;97393.41;;;9.06;100.00
69848;BME280;57143;55.940;37.496;2023-04-02T08:58:39;97411.19;;;8.97;100.00
69848;BME280;57143;55.940;37.496;2023-04-02T09:01:17;97410.34;;;8.87;100.00
69848;BME280;57143;55.940;37.496;2023-04-02T09:03:47;97410.56;;;8.85;100.00
69848;BME280;57143;55.940;37.496;2023-04-02T09:06:18;97366.63;;;8.48;100.00
69848;BME280;57143;55.940;37.496;2023-04-02T09:08:47;97406.25;;;8.79;100.00
69848;BME280;57143;55.940;37.496;2023-04-02T09:11:22;97406.31;;;8.99;100.00
69848;BME280;57143;55.940;37.496;2023-04-02T09:13:55;97417.16;;;9.04;100.00
69848;BME280;57143;55.940;37.496;2023-04-02T09:16:33;97403.44;;;9.11;100.00
69848;BME280;57143;55.940;37.496;2023-04-02T09:19:13;97405.31;;;9.10;100.00
69848;BME280;57143;55.940;37.496;2023-04-02T09:21:44;97387.06;;;8.81;100.00
69848;BME280;57143;55.940;37.496;2023-04-02T09:24:13;97411.44;;;8.96;100.00
69848;BME280;57143;55.940;37.496;2023-04-02T09:26:40;97417.13;;;8.99;100.00
69848;BME280;57143;55.940;37.496;2023-04-02T09:29:27;97412.81;;;8.93;100.00
69848;BME280;57143;55.940;37.496;2023-04-02T09:32:03;97417.63;;;8.86;100.00
69848;BME280;57143;55.940;37.496;2023-04-02T09:34:34;97411.13;;;8.87;100.00
69848;BME280;57143;55.940;37.496;2023-04-02T09:37:06;97404.94;;;8.87;100.00
69848;BME280;57143;55.940;37.496;2023-04-02T09:39:34;97411.94;;;8.83;100.00
69848;BME280;57143;55.940;37.496;2023-04-02T09:42:05;97408.97;;;8.84;100.00
69848;BME280;57143;55.940;37.496;2023-04-02T09:44:33;97408.97;;;8.84;100.00
69848;BME280;57143;55.940;37.496;2023-04-02T09:47:04;97396.19;;;8.70;100.00
69848;BME280;57143;55.940;37.496;2023-04-02T09:49:32;97418.50;;;8.55;100.00
69848;BME280;57143;55.940;37.496;2023-04-02T09:52:16;97409.94;;;8.68;100.00
69848;BME280;57143;55.940;37.496;2023-04-02T09:54:43;97394.28;;;8.70;100.00
69848;BME280;57143;55.940;37.496;2023-04-02T09:57:19;97390.78;;;8.70;100.00
69848;BME280;57143;55.940;37.496;2023-04-02T10:00:09;97370.22;;;8.64;100.00
69848;BME280;57143;55.940;37.496;2023-04-02T10:02:39;97358.84;;;8.57;100.00
69848;BME280;57143;55.940;37.496;2023-04-02T10:05:17;97373.81;;;8.79;100.00
69848;BME280;57143;55.940;37.496;2023-04-02T10:07:46;97370.84;;;8.81;100.00
69848;BME280;57143;55.940;37.496;2023-04-02T10:10:19;97384.88;;;8.73;100.00
69848;BME280;57143;55.940;37.496;2023-04-02T10:12:53;97380.03;;;8.75;100.00
69848;BME280;57143;55.940;37.496;2023-04-02T10:15:28;97348.31;;;8.55;100.00
69848;BME280;57143;55.940;37.496;2023-04-02T10:18:08;97373.03;;;8.84;100.00
69848;BME280;57143;55.940;37.496;2023-04-02T10:20:39;97362.00;;;8.90;100.00
69848;BME280;57143;55.940;37.496;2023-04-02T10:23:11;97359.53;;;8.84;100.00
69848;BME280;57143;55.940;37.496;2023-04-02T10:25:47;97364.13;;;8.83;100.00
69848;BME280;57143;55.940;37.496;2023-04-02T10:28:23;97355.47;;;8.81;100.00
69848;BME280;57143;55.940;37.496;2023-04-02T10:30:58;97358.19;;;8.86;100.00
69848;BME280;57143;55.940;37.496;2023-04-02T10:33:35;97358.53;;;9.00;100.00
69848;BME280;57143;55.940;37.496;2023-04-02T10:36:08;97367.41;;;8.90;100.00
69848;BME280;57143;55.940;37.496;2023-04-02T10:38:49;97373.13;;;8.99;100.00
69848;BME280;57143;55.940;37.496;2023-04-02T10:41:26;97324.38;;;8.79;100.00
69848;BME280;57143;55.940;37.496;2023-04-02T10:44:16;97349.03;;;8.92;100.00
69848;BME280;57143;55.940;37.496;2023-04-02T10:49:40;97362.34;;;9.09;100.00
69848;BME280;57143;55.940;37.496;2023-04-02T10:52:11;97359.09;;;9.12;100.00
69848;BME280;57143;55.940;37.496;2023-04-02T10:54:47;97362.03;;;9.00;100.00
69848;BME280;57143;55.940;37.496;2023-04-02T10:57:29;97370.47;;;9.19;100.00
69848;BME280;57143;55.940;37.496;2023-04-02T11:00:06;97370.53;;;9.34;100.00
69848;BME280;57143;55.940;37.496;2023-04-02T11:02:45;97353.53;;;9.49;100.00
69848;BME280;57143;55.940;37.496;2023-04-02T11:05:18;97367.63;;;9.56;100.00
69848;BME280;57143;55.940;37.496;2023-04-02T11:07:57;97372.22;;;9.70;100.00
69848;BME280;57143;55.940;37.496;2023-04-02T11:10:25;97375.75;;;9.76;100.00
69848;BME280;57143;55.940;37.496;2023-04-02T11:12:58;97381.44;;;9.79;100.00
69848;BME280;57143;55.940;37.496;2023-04-02T11:15:29;97401.75;;;9.87;100.00
69848;BME280;57143;55.940;37.496;2023-04-02T11:17:57;97416.06;;;9.82;100.00
69848;BME280;57143;55.940;37.496;2023-04-02T11:20:54;97420.97;;;9.95;100.00
69848;BME280;57143;55.940;37.496;2023-04-02T11:23:26;97417.16;;;9.91;100.00
69848;BME280;57143;55.940;37.496;2023-04-02T11:31:42;97449.38;;;10.08;100.00
69848;BME280;57143;55.940;37.496;2023-04-02T11:34:15;97467.25;;;10.04;100.00
69848;BME280;57143;55.940;37.496;2023-04-02T11:37:09;97453.94;;;9.82;100.00
69848;BME280;57143;55.940;37.496;2023-04-02T11:39:51;97472.09;;;9.97;100.00
69848;BME280;57143;55.940;37.496;2023-04-02T11:42:26;97487.06;;;10.19;100.00
69848;BME280;57143;55.940;37.496;2023-04-02T11:44:55;97485.41;;;10.23;100.00
69848;BME280;57143;55.940;37.496;2023-04-02T11:47:24;97502.47;;;10.19;100.00
69848;BME280;57143;55.940;37.496;2023-04-02T11:50:00;97518.72;;;10.19;100.00
69848;BME280;57143;55.940;37.496;2023-04-02T11:52:37;97526.50;;;10.05;100.00
69848;BME280;57143;55.940;37.496;2023-04-02T11:55:24;97513.72;;;9.81;100.00
69848;BME280;57143;55.940;37.496;2023-04-02T11:58:29;97551.06;;;9.89;100.00
69848;BME280;57143;55.940;37.496;2023-04-02T12:01:28;97511.75;;;9.61;100.00
69848;BME280;57143;55.940;37.496;2023-04-02T12:07:08;97520.53;;;9.88;100.00
69848;BME280;57143;55.940;37.496;2023-04-02T12:09:46;97456.56;;;9.57;100.00
69848;BME280;57143;55.940;37.496;2023-04-02T12:12:16;97508.06;;;9.92;100.00
69848;BME280;57143;55.940;37.496;2023-04-02T12:14:50;97494.84;;;10.01;100.00
69848;BME280;57143;55.940;37.496;2023-04-02T12:17:24;97501.16;;;10.26;100.00
69848;BME280;57143;55.940;37.496;2023-04-02T12:19:56;97512.25;;;10.35;100.00
69848;BME280;57143;55.940;37.496;2023-04-02T12:22:25;97494.38;;;10.24;100.00
69848;BME280;57143;55.940;37.496;2023-04-02T12:24:58;97518.72;;;10.29;100.00
69848;BME280;57143;55.940;37.496;2023-04-02T12:27:27;97545.03;;;10.28;100.00
69848;BME280;57143;55.940;37.496;2023-04-02T12:29:55;97587.78;;;10.21;100.00
69848;BME280;57143;55.940;37.496;2023-04-02T12:32:36;97589.38;;;10.22;100.00
69848;BME280;57143;55.940;37.496;2023-04-02T12:35:03;97595.34;;;10.19;100.00
69848;BME280;57143;55.940;37.496;2023-04-02T12:37:31;97610.19;;;10.12;100.00
69848;BME280;57143;55.940;37.496;2023-04-02T12:40:02;97591.44;;;9.95;100.00
69848;BME280;57143;55.940;37.496;2023-04-02T12:42:33;97552.41;;;9.76;100.00
69848;BME280;57143;55.940;37.496;2023-04-02T12:45:01;97617.25;;;10.13;100.00
69848;BME280;57143;55.940;37.496;2023-04-02T12:47:29;97618.88;;;10.14;100.00
69848;BME280;57143;55.940;37.496;2023-04-02T12:49:57;97620.19;;;10.11;100.00
69848;BME280;57143;55.940;37.496;2023-04-02T12:52:27;97609.56;;;10.00;100.00
69848;BME280;57143;55.940;37.496;2023-04-02T12:54:56;97609.28;;;9.96;100.00
69848;BME280;57143;55.940;37.496;2023-04-02T12:57:34;97608.84;;;10.09;100.00
69848;BME280;57143;55.940;37.496;2023-04-02T13:00:33;97620.97;;;10.07;100.00
69848;BME280;57143;55.940;37.496;2023-04-02T13:03:15;97614.41;;;9.93;100.00
69848;BME280;57143;55.940;37.496;2023-04-02T13:05:45;97626.34;;;9.97;100.00
69848;BME280;57143;55.940;37.496;2023-04-02T13:08:17;97619.09;;;10.07;100.00
69848;BME280;57143;55.940;37.496;2023-04-02T13:10:45;97614.47;;;10.08;100.00
69848;BME280;57143;55.940;37.496;2023-04-02T13:13:23;97613.94;;;10.01;100.00
69848;BME280;57143;55.940;37.496;2023-04-02T13:16:00;97620.41;;;10.05;100.00
69848;BME280;57143;55.940;37.496;2023-04-02T13:18:35;97621.81;;;10.07;100.00
69848;BME280;57143;55.940;37.496;2023-04-02T13:21:04;97623.47;;;10.18;100.00
69848;BME280;57143;55.940;37.496;2023-04-02T13:23:34;97623.78;;;10.27;100.00
69848;BME280;57143;55.940;37.496;2023-04-02T13:26:12;97626.19;;;10.23;100.00
69848;BME280;57143;55.940;37.496;2023-04-02T13:28:42;97597.44;;;10.02;100.00
69848;BME280;57143;55.940;37.496;2023-04-02T13:31:13;97642.97;;;10.20;100.00
69848;BME280;57143;55.940;37.496;2023-04-02T13:33:41;97637.00;;;10.18;100.00
69848;BME280;57143;55.940;37.496;2023-04-02T13:36:12;97627.22;;;10.07;100.00